Connorsville, Ohio
Current Conditions -  °F | °C
As of 10:53 PM on Sunday 21 Dec 2014 (Local Time) from KHLG Reporting Station
Clear Clear  
Wind Chill: 20°   Ceiling: Unl
Heat Index: 27°   Visibility: 8mi
Dew Point: 21°   Wind: 6mph
Humidity: 78%   Direction: 60°ENE
Pressure: 30.18"   Gusts: NA
Location:  40.2229°N, 80.7179°W
Report Text: KHLG 220353Z AUTO 06005KT 8SM CLR M03/M06 A3018 RMK AO2 SLP235 T10281061
Loading
Personal Weather Stations






























Interactive Weather Map New forecast layout! Learn more

10-Day Weather Forecast

Advertisements
Track Severe Weather on mobile